Terminal Aerodrome Forecast
Issued by NWS Shreveport, LA

Home | Current Version | Previous Version | Text Only | Print | Product List | Glossary On
Versions: 1 2 3 4 5 6 7 8 9 10 11 12 13 14 15 16 17 18
000
FTUS44 KSHV 291626 AAB
TAFLFK
TAF AMD
KLFK 291626Z 2916/3012 19012G17KT P6SM FEW025
     FM291800 19014G20KT P6SM SCT030
     FM300000 17006KT P6SM SKC
     FM300600 16004KT P6SM BKN020
      TEMPO 3009/3012 3SM BR OVC010=

USA.gov is the U.S. government's official web portal to all federal, state and local government web resources and services.